Aeroporto :
LOGIN :

Iscrizione | Disclaimer

   EN    FR    IT 

 










Sommario :    VFR   VFR Marginale   IFR   IFR Intensivo   IFR Molto Intensivo
Visibilità : 
Base nubi : 
>= 8 km
>= 3000ft
5 / 8 km
1000 / 3000 ft
1500m / 5 km
500 / 1000 ft
800 / 1500m
200 / 500 ft
< 800m
< 200 ft
Simboli :   Temporali  Nebbia  Neve Forte  Precipitazioni Forti  Vento > 20 kt
SIGMETs :   Varie  Temporali  Ghiacco  Turbolenza  Onda orograficha  Ceneri Vulcaniche






- Altitudine del aeroporto : 3 ft
- Codice IATA : LWR


EHLW - Leuuwarden Air Base

ULTIMO METAR :
  • 290625Z AUTO 02021G31KT 350V060 9999 NCD 04/M03 Q1030 BLU

METARs OBSOLETI :
  • 290555Z AUTO 02018KT 9999 FEW030 04/M01 Q1029 BLU
  • 290525Z AUTO 02018KT 9999 NCD 04/M01 Q1029 BLU
  • 290455Z AUTO 03017KT 360V060 9999 NCD 05/M01 Q1029 BLU
  • 290425Z AUTO 02016KT 9999 NCD 05/M01 Q1028 BLU
  • 290355Z AUTO 03016KT 360V060 9999 FEW036 05/M01 Q1028 BLU

TAF TAF EHLW
Valido dal 29 a 05 ore il 29 a 17 ore UTC


290412Z 2905/2917 03017KT 9999 SCT025
BECMG 2906/2909 03023G35KT



MetMap, La meteo Aeronautica in un colpo d'occhio ! - Copyright ORBIFLY Dicembre 2007 - Disclaimer

ORBIFLY MET'MAP TEAM :

Programmazione e sviluppo : Alexandra Zaïnal
Concezione : Baudouin d'Aumeries
Aiuto per la programmazione : Marc-Olivier Méhu
Supporto tecnico e logistico : Manuel Goepfert
Aiuto per la traduzione : Arnaldo La Scala

Contatto : metmap@orbifly.com




FONTI E CREDITI :

   NOAA